Observation data for Silverton on 01/13/2018      Previous  Date  Next       Current Mesonet Observations  Soil Data  Daily Summary Page  Observations in Plain Language
KSVS 130600Z 19007KT M07/M16 A304 RMK A01 T10701155  RH  052%=      5-min Rain = 0
KSVS 130605Z 20007KT M07/M16 A304 RMK A01 T10651155  RH  050%=      5-min Rain = 0
KSVS 130610Z 22005KT M07/M15 A304 RMK A01 T10671154  RH  051%=      5-min Rain = 0
KSVS 130615Z 19005KT M07/M15 A3041 RMK A01 T10651153  RH  050%=      5-min Rain = 0
KSVS 130620Z 04006KT M07/M15 A3042 RMK A01 T10681154  RH  051%=      5-min Rain = 0
KSVS 130625Z 02006KT M07/M15 A3042 RMK A01 T10711154  RH  053%=      5-min Rain = 0
KSVS 130630Z 03006KT M08/M15 A3043 RMK A01 T10761154  RH  055%=      5-min Rain = 0
KSVS 130635Z 03006KT M08/M15 A3043 RMK A01 T10791154  RH  056%=      5-min Rain = 0
KSVS 130640Z 03006KT M08/M16 A3043 RMK A01 T10791155  RH  056%=      5-min Rain = 0
KSVS 130645Z 02006KT M08/M16 A3043 RMK A01 T10821156  RH  056%=      5-min Rain = 0
KSVS 130650Z 02007KT M08/M15 A3044 RMK A01 T10791154  RH  056%=      5-min Rain = 0
KSVS 130655Z 02008KT M08/M15 A3044 RMK A01 T10751153  RH  055%=      5-min Rain = 0
KSVS 130700Z 02006KT M07/M15 A3043 RMK A01 T10731151  RH  054%=      5-min Rain = 0
KSVS 130705Z 03006KT M07/M15 A3043 RMK A01 T10731151  RH  054%=      5-min Rain = 0
KSVS 130710Z 04005KT M07/M15 A3043 RMK A01 T10731151  RH  055%=      5-min Rain = 0
KSVS 130715Z 04006KT M07/M15 A3043 RMK A01 T10721151  RH  054%=      5-min Rain = 0
KSVS 130720Z 06005KT M07/M15 A3043 RMK A01 T10741151  RH  055%=      5-min Rain = 0
KSVS 130725Z 07005KT M08/M15 A3043 RMK A01 T10771153  RH  055%=      5-min Rain = 0
KSVS 130730Z 07005KT M08/M15 A3043 RMK A01 T10761152  RH  055%=      5-min Rain = 0
KSVS 130735Z 08005KT M07/M15 A3043 RMK A01 T10721151  RH  054%=      5-min Rain = 0
KSVS 130740Z 11004KT M07/M15 A3043 RMK A01 T10711152  RH  053%=      5-min Rain = 0
KSVS 130745Z 10004KT M07/M15 A3043 RMK A01 T10681153  RH  052%=      5-min Rain = 0
KSVS 130750Z 09004KT M07/M16 A3043 RMK A01 T10701155  RH  051%=      5-min Rain = 0
KSVS 130755Z 09004KT M07/M16 A3043 RMK A01 T10701155  RH  052%=      5-min Rain = 0
KSVS 130800Z 06005KT M08/M16 A3043 RMK A01 T10791161  RH  053%=      5-min Rain = 0
KSVS 130805Z 05004KT M10/M17 A3044 RMK A01 T10961165  RH  058%=      5-min Rain = 0
KSVS 130810Z 05006KT M09/M16 A3044 RMK A01 T10941158  RH  060%=      5-min Rain = 0
KSVS 130815Z 05007KT M09/M16 A3044 RMK A01 T10861155  RH  058%=      5-min Rain = 0
KSVS 130820Z 05006KT M09/M16 A3044 RMK A01 T10851155  RH  058%=      5-min Rain = 0
KSVS 130825Z 05006KT M08/M15 A3045 RMK A01 T10841154  RH  058%=      5-min Rain = 0
KSVS 130830Z 05006KT M09/M16 A3045 RMK A01 T10851156  RH  058%=      5-min Rain = 0
KSVS 130835Z 06006KT M09/M16 A3045 RMK A01 T10891157  RH  059%=      5-min Rain = 0
KSVS 130840Z 07006KT M09/M16 A3044 RMK A01 T10881158  RH  058%=      5-min Rain = 0
KSVS 130845Z 07006KT M09/M16 A3044 RMK A01 T10881159  RH  057%=      5-min Rain = 0
KSVS 130850Z 08005KT M09/M16 A3044 RMK A01 T10851162  RH  055%=      5-min Rain = 0
KSVS 130855Z 08005KT M09/M16 A3044 RMK A01 T10871164  RH  055%=      5-min Rain = 0
KSVS 130900Z 08005KT M09/M16 A3044 RMK A01 T10891163  RH  056%=      5-min Rain = 0
KSVS 130905Z 07005KT M09/M16 A3044 RMK A01 T10881161  RH  057%=      5-min Rain = 0
KSVS 130910Z 07004KT M09/M16 A3044 RMK A01 T10871160  RH  056%=      5-min Rain = 0
KSVS 130915Z 07004KT M09/M16 A3045 RMK A01 T10901163  RH  057%=      5-min Rain = 0
KSVS 130920Z 07004KT M10/M16 A3045 RMK A01 T10951162  RH  059%=      5-min Rain = 0
KSVS 130925Z 07004KT M09/M16 A3045 RMK A01 T10941161  RH  059%=      5-min Rain = 0
KSVS 130930Z 06004KT M09/M16 A3045 RMK A01 T10941162  RH  059%=      5-min Rain = 0
KSVS 130935Z 07004KT M10/M16 A3045 RMK A01 T10981163  RH  060%=      5-min Rain = 0
KSVS 130940Z 09004KT M09/M16 A3045 RMK A01 T10941158  RH  061%=      5-min Rain = 0
KSVS 130945Z 09004KT M09/M16 A3045 RMK A01 T10901161  RH  057%=      5-min Rain = 0
KSVS 130950Z 08004KT M09/M16 A3045 RMK A01 T10871159  RH  057%=      5-min Rain = 0
KSVS 130955Z 08004KT M08/M16 A3046 RMK A01 T10811159  RH  055%=      5-min Rain = 0
KSVS 131000Z 08005KT M08/M16 A3046 RMK A01 T10801160  RH  053%=      5-min Rain = 0
KSVS 131005Z 08005KT M08/M16 A3046 RMK A01 T10841163  RH  054%=      5-min Rain = 0
KSVS 131010Z 08004KT M09/M17 A3046 RMK A01 T10901165  RH  055%=      5-min Rain = 0
KSVS 131015Z 07004KT M09/M17 A3046 RMK A01 T10941166  RH  057%=      5-min Rain = 0
KSVS 131020Z 07004KT M10/M16 A3047 RMK A01 T10961164  RH  059%=      5-min Rain = 0
KSVS 131025Z 07004KT M10/M16 A3047 RMK A01 T10961163  RH  060%=      5-min Rain = 0
KSVS 131030Z 07003KT M10/M16 A3047 RMK A01 T10961162  RH  060%=      5-min Rain = 0
KSVS 131035Z 07003KT M10/M16 A3047 RMK A01 T10961162  RH  059%=      5-min Rain = 0
KSVS 131040Z 07002KT M10/M16 A3048 RMK A01 T11041163  RH  063%=      5-min Rain = 0
KSVS 131045Z 06001KT M11/M17 A3048 RMK A01 T11081166  RH  064%=      5-min Rain = 0
KSVS 131050Z 02000KT M11/M17 A3048 RMK A01 T11121170  RH  063%=      5-min Rain = 0
KSVS 131055Z 00000KT M11/M17 A3048 RMK A01 T11131171  RH  063%=      5-min Rain = 0
KSVS 131100Z 00000KT M11/M17 A3047 RMK A01 T11131174  RH  062%=      5-min Rain = 0
KSVS 131105Z 25001KT M11/M17 A3047 RMK A01 T11121174  RH  062%=      5-min Rain = 0
KSVS 131110Z 25001KT M11/M17 A3048 RMK A01 T11081172  RH  061%=      5-min Rain = 0
KSVS 131115Z 25001KT M11/M17 A3048 RMK A01 T11091172  RH  061%=      5-min Rain = 0
KSVS 131120Z 25001KT M11/M17 A3048 RMK A01 T11081170  RH  061%=      5-min Rain = 0
KSVS 131125Z 26001KT M11/M17 A3048 RMK A01 T11071170  RH  061%=      5-min Rain = 0
KSVS 131130Z 26001KT M11/M17 A3049 RMK A01 T11071171  RH  061%=      5-min Rain = 0
KSVS 131135Z 26001KT M11/M17 A3049 RMK A01 T11081171  RH  061%=      5-min Rain = 0
KSVS 131140Z 26001KT M11/M17 A3049 RMK A01 T11081169  RH  062%=      5-min Rain = 0
KSVS 131145Z 26001KT M11/M17 A3049 RMK A01 T11061170  RH  061%=      5-min Rain = 0
KSVS 131150Z 26001KT M11/M17 A3049 RMK A01 T11081172  RH  060%=      5-min Rain = 0
KSVS 131155Z 26001KT M11/M17 A3049 RMK A01 T11091172  RH  061%=      5-min Rain = 0
KSVS 131200Z 27001KT M11/M17 A3049 RMK A01 T11111171  RH  062%=      5-min Rain = 0
KSVS 131205Z 27001KT M11/M17 A3049 RMK A01 T11111168  RH  064%=      5-min Rain = 0
KSVS 131210Z 27001KT M11/M17 A3049 RMK A01 T11121167  RH  065%=      5-min Rain = 0
KSVS 131215Z 28001KT M11/M17 A305 RMK A01 T11121169  RH  064%=      5-min Rain = 0
KSVS 131220Z 29002KT M11/M17 A305 RMK A01 T11141168  RH  065%=      5-min Rain = 0
KSVS 131225Z 30002KT M11/M17 A305 RMK A01 T11141172  RH  063%=      5-min Rain = 0
KSVS 131230Z 30002KT M12/M17 A305 RMK A01 T11151174  RH  063%=      5-min Rain = 0
KSVS 131235Z 33003KT M11/M17 A3051 RMK A01 T11131167  RH  065%=      5-min Rain = 0
KSVS 131240Z 33003KT M11/M17 A3051 RMK A01 T11121167  RH  065%=      5-min Rain = 0
KSVS 131245Z 34002KT M12/M17 A3051 RMK A01 T11151166  RH  067%=      5-min Rain = 0
KSVS 131250Z 00002KT M12/M16 A3051 RMK A01 T11151164  RH  068%=      5-min Rain = 0
KSVS 131255Z 00002KT M12/M17 A3051 RMK A01 T11151166  RH  067%=      5-min Rain = 0
KSVS 131300Z 01002KT M12/M17 A3051 RMK A01 T11161166  RH  068%=      5-min Rain = 0
KSVS 131305Z 03002KT M11/M16 A3051 RMK A01 T11141163  RH  068%=      5-min Rain = 0
KSVS 131310Z 06002KT M11/M16 A3051 RMK A01 T11131163  RH  068%=      5-min Rain = 0
KSVS 131315Z 06003KT M11/M16 A3051 RMK A01 T11131162  RH  068%=      5-min Rain = 0
KSVS 131320Z 06004KT M11/M16 A3051 RMK A01 T11111159  RH  069%=      5-min Rain = 0
KSVS 131325Z 06004KT M11/M16 A3051 RMK A01 T11071157  RH  067%=      5-min Rain = 0
KSVS 131330Z 06005KT M11/M16 A3051 RMK A01 T11061160  RH  066%=      5-min Rain = 0
KSVS 131335Z 07004KT M10/M16 A3051 RMK A01 T11011157  RH  065%=      5-min Rain = 0
KSVS 131340Z 05004KT M10/M16 A3052 RMK A01 T11041162  RH  063%=      5-min Rain = 0
KSVS 131345Z 05004KT M11/M17 A3052 RMK A01 T11131165  RH  066%=      5-min Rain = 0
KSVS 131350Z 05003KT M11/M16 A3053 RMK A01 T11101160  RH  068%=      5-min Rain = 0
KSVS 131355Z 05003KT M11/M16 A3053 RMK A01 T11051159  RH  066%=      5-min Rain = 0
KSVS 131400Z 05003KT M11/M16 A3053 RMK A01 T11051161  RH  065%=      5-min Rain = 0
KSVS 131405Z 06003KT M11/M16 A3053 RMK A01 T11051161  RH  065%=      5-min Rain = 0
KSVS 131410Z 06004KT M10/M16 A3053 RMK A01 T11021159  RH  064%=      5-min Rain = 0
KSVS 131415Z 07005KT M10/M16 A3053 RMK A01 T10971157  RH  062%=      5-min Rain = 0
KSVS 131420Z 07005KT M10/M16 A3053 RMK A01 T10991161  RH  062%=      5-min Rain = 0
KSVS 131425Z 07005KT M10/M16 A3054 RMK A01 T10981157  RH  063%=      5-min Rain = 0
KSVS 131430Z 06006KT M09/M15 A3054 RMK A01 T10911149  RH  064%=      5-min Rain = 0
KSVS 131435Z 08006KT M09/M15 A3054 RMK A01 T10871147  RH  062%=      5-min Rain = 0
KSVS 131440Z 08006KT M08/M15 A3054 RMK A01 T10821150  RH  059%=      5-min Rain = 0
KSVS 131445Z 08006KT M08/M15 A3054 RMK A01 T10781151  RH  057%=      5-min Rain = 0
KSVS 131450Z 08005KT M07/M15 A3055 RMK A01 T10691148  RH  054%=      5-min Rain = 0
KSVS 131455Z 08004KT M06/M15 A3055 RMK A01 T10611148  RH  051%=      5-min Rain = 0
KSVS 131500Z 09004KT M06/M15 A3055 RMK A01 T10561148  RH  049%=      5-min Rain = 0
KSVS 131505Z 10005KT M06/M16 A3056 RMK A01 T10551156  RH  046%=      5-min Rain = 0
KSVS 131510Z 09006KT M05/M16 A3056 RMK A01 T10541159  RH  044%=      5-min Rain = 0
KSVS 131515Z 08005KT M05/M16 A3056 RMK A01 T10511159  RH  043%=      5-min Rain = 0
KSVS 131520Z 08005KT M05/M16 A3056 RMK A01 T10491160  RH  042%=      5-min Rain = 0
KSVS 131525Z 09004KT M05/M16 A3055 RMK A01 T10471161  RH  041%=      5-min Rain = 0
KSVS 131530Z 09003KT M05/M16 A3055 RMK A01 T10471162  RH  041%=      5-min Rain = 0
KSVS 131535Z 10003KT M04/M16 A3055 RMK A01 T10431163  RH  039%=      5-min Rain = 0
KSVS 131540Z 11004KT M04/M16 A3055 RMK A01 T10411163  RH  039%=      5-min Rain = 0
KSVS 131545Z 10003KT M04/M16 A3055 RMK A01 T10401164  RH  038%=      5-min Rain = 0
KSVS 131550Z 11003KT M04/M16 A3055 RMK A01 T10351161  RH  038%=      5-min Rain = 0
KSVS 131555Z 12003KT M03/M16 A3055 RMK A01 T10341161  RH  037%=      5-min Rain = 0
KSVS 131600Z 15003KT M04/M16 A3055 RMK A01 T10351162  RH  037%=      5-min Rain = 0
KSVS 131605Z 13004KT M04/M16 A3055 RMK A01 T10351162  RH  037%=      5-min Rain = 0
KSVS 131610Z 13003KT M03/M16 A3055 RMK A01 T10331162  RH  037%=      5-min Rain = 0
KSVS 131615Z 15003KT M03/M16 A3056 RMK A01 T10311161  RH  036%=      5-min Rain = 0
KSVS 131620Z 12002KT M03/M16 A3056 RMK A01 T10281160  RH  036%=      5-min Rain = 0
KSVS 131625Z 12003KT M02/M16 A3056 RMK A01 T10231159  RH  035%=      5-min Rain = 0
KSVS 131630Z 13002KT M02/M16 A3055 RMK A01 T10191158  RH  034%=      5-min Rain = 0
KSVS 131635Z 16003KT M02/M16 A3055 RMK A01 T10181159  RH  034%=      5-min Rain = 0
KSVS 131640Z 16003KT M02/M16 A3055 RMK A01 T10151157  RH  034%=      5-min Rain = 0
KSVS 131645Z 16003KT M01/M16 A3056 RMK A01 T10111156  RH  033%=      5-min Rain = 0
KSVS 131650Z 15003KT M01/M16 A3056 RMK A01 T10081155  RH  032%=      5-min Rain = 0
KSVS 131655Z 18004KT M01/M16 A3056 RMK A01 T10071157  RH  032%=      5-min Rain = 0
KSVS 131700Z 20004KT M01/M16 A3056 RMK A01 T10081156  RH  032%=      5-min Rain = 0
KSVS 131705Z 18004KT M00/M16 A3056 RMK A01 T10041155  RH  032%=      5-min Rain = 0
KSVS 131710Z 18002KT M01/M16 A3056 RMK A01 T10051157  RH  031%=      5-min Rain = 0
KSVS 131715Z 16004KT M00/M16 A3056 RMK A01 T10031156  RH  031%=      5-min Rain = 0
KSVS 131720Z 16004KT M00/M16 A3056 RMK A01 T10021155  RH  031%=      5-min Rain = 0
KSVS 131725Z 16005KT 00/M15 A3056 RMK A01 T00031154  RH  030%=      5-min Rain = 0
KSVS 131730Z 19004KT 01/M15 A3055 RMK A01 T00051152  RH  030%=      5-min Rain = 0
KSVS 131735Z 22004KT 01/M15 A3055 RMK A01 T00071152  RH  030%=      5-min Rain = 0
KSVS 131740Z 21005KT 01/M15 A3055 RMK A01 T00111151  RH  029%=      5-min Rain = 0
KSVS 131745Z 23005KT 01/M15 A3055 RMK A01 T00141149  RH  029%=      5-min Rain = 0
KSVS 131750Z 20004G9KT 01/M15 A3054 RMK A01 T00101151  RH  029%=      5-min Rain = 0
KSVS 131755Z 19004KT 01/M15 A3054 RMK A01 T00141149  RH  029%=      5-min Rain = 0
KSVS 131800Z 23004KT 02/M15 A3054 RMK A01 T00171147  RH  029%=      5-min Rain = 0
KSVS 131805Z 21005KT 02/M15 A3053 RMK A01 T00221145  RH  028%=      5-min Rain = 0
KSVS 131810Z 21004KT 02/M14 A3053 RMK A01 T00241144  RH  028%=      5-min Rain = 0
KSVS 131815Z 25006KT 03/M14 A3052 RMK A01 T00251142  RH  029%=      5-min Rain = 0
KSVS 131820Z 21005KT 03/M14 A3052 RMK A01 T00261141  RH  028%=      5-min Rain = 0
KSVS 131825Z 22003KT 03/M14 A3052 RMK A01 T00311140  RH  028%=      5-min Rain = 0
KSVS 131830Z 22004KT 03/M14 A3051 RMK A01 T00331140  RH  027%=      5-min Rain = 0
KSVS 131835Z 23006KT 04/M14 A3051 RMK A01 T00371140  RH  027%=      5-min Rain = 0
KSVS 131840Z 22006KT 04/M14 A305 RMK A01 T00381140  RH  026%=      5-min Rain = 0
KSVS 131845Z 20006KT 04/M14 A3049 RMK A01 T00401139  RH  026%=      5-min Rain = 0
KSVS 131850Z 21008KT 04/M14 A3048 RMK A01 T00421139  RH  026%=      5-min Rain = 0
KSVS 131855Z 20007G12KT 05/M14 A3048 RMK A01 T00451138  RH  025%=      5-min Rain = 0
KSVS 131900Z 21008KT 05/M14 A3047 RMK A01 T00511137  RH  025%=      5-min Rain = 0
KSVS 131905Z 20007KT 05/M14 A3046 RMK A01 T00511137  RH  025%=      5-min Rain = 0
KSVS 131910Z 19009KT 06/M14 A3046 RMK A01 T00561136  RH  024%=      5-min Rain = 0
KSVS 131915Z 21008KT 05/M14 A3045 RMK A01 T00541136  RH  024%=      5-min Rain = 0
KSVS 131920Z 22008KT 06/M13 A3045 RMK A01 T00601134  RH  024%=      5-min Rain = 0
KSVS 131925Z 20008KT 06/M13 A3044 RMK A01 T00611134  RH  024%=      5-min Rain = 0
KSVS 131930Z 21009KT 06/M13 A3044 RMK A01 T00641133  RH  023%=      5-min Rain = 0
KSVS 131935Z 21009KT 06/M13 A3043 RMK A01 T00631133  RH  023%=      5-min Rain = 0
KSVS 131940Z 21009KT 07/M13 A3043 RMK A01 T00661133  RH  023%=      5-min Rain = 0
KSVS 131945Z 20009KT 06/M13 A3043 RMK A01 T00641133  RH  023%=      5-min Rain = 0
KSVS 131950Z 19010KT 06/M13 A3042 RMK A01 T00621132  RH  024%=      5-min Rain = 0
KSVS 131955Z 20009KT 06/M13 A3042 RMK A01 T00611129  RH  024%=      5-min Rain = 0
KSVS 132000Z 20009KT 07/M13 A3042 RMK A01 T00721127  RH  023%=      5-min Rain = 0
KSVS 132005Z 19009KT 07/M13 A3042 RMK A01 T00701130  RH  023%=      5-min Rain = 0
KSVS 132010Z 19008KT 07/M13 A3041 RMK A01 T00711129  RH  023%=      5-min Rain = 0
KSVS 132015Z 20010KT 07/M13 A3041 RMK A01 T00741128  RH  023%=      5-min Rain = 0
KSVS 132020Z 20009KT 08/M13 A3041 RMK A01 T00761128  RH  022%=      5-min Rain = 0
KSVS 132025Z 20009KT 08/M13 A304 RMK A01 T00781129  RH  022%=      5-min Rain = 0
KSVS 132030Z 19008G13KT 08/M13 A304 RMK A01 T00771130  RH  022%=      5-min Rain = 0
KSVS 132035Z 19009KT 08/M13 A304 RMK A01 T00761130  RH  022%=      5-min Rain = 0
KSVS 132040Z 20009G14KT 08/M13 A3039 RMK A01 T00771130  RH  022%=      5-min Rain = 0
KSVS 132045Z 20010KT 08/M13 A3039 RMK A01 T00821128  RH  021%=      5-min Rain = 0
KSVS 132050Z 20010KT 08/M13 A3038 RMK A01 T00801128  RH  022%=      5-min Rain = 0
KSVS 132055Z 20009G15KT 08/M13 A3038 RMK A01 T00801125  RH  022%=      5-min Rain = 0
KSVS 132100Z 19009KT 08/M12 A3037 RMK A01 T00811123  RH  022%=      5-min Rain = 0
KSVS 132105Z 18010KT 08/M12 A3037 RMK A01 T00821120  RH  023%=      5-min Rain = 0
KSVS 132110Z 18010KT 09/M12 A3037 RMK A01 T00851118  RH  023%=      5-min Rain = 0
KSVS 132115Z 19009G15KT 09/M12 A3037 RMK A01 T00861116  RH  023%=      5-min Rain = 0
KSVS 132120Z 19010KT 09/M12 A3037 RMK A01 T00871115  RH  023%=      5-min Rain = 0
KSVS 132125Z 19009KT 09/M11 A3036 RMK A01 T00881113  RH  023%=      5-min Rain = 0
KSVS 132130Z 19010G16KT 09/M11 A3036 RMK A01 T00881111  RH  024%=      5-min Rain = 0
KSVS 132135Z 19011G16KT 09/M11 A3036 RMK A01 T00861109  RH  024%=      5-min Rain = 0
KSVS 132140Z 18011KT 09/M11 A3036 RMK A01 T00881108  RH  024%=      5-min Rain = 0
KSVS 132145Z 19010KT 09/M11 A3036 RMK A01 T00861108  RH  024%=      5-min Rain = 0
KSVS 132150Z 19011G16KT 09/M11 A3036 RMK A01 T00871105  RH  025%=      5-min Rain = 0
KSVS 132155Z 19011KT 09/M10 A3035 RMK A01 T00871103  RH  025%=      5-min Rain = 0
KSVS 132200Z 18010G16KT 09/M10 A3035 RMK A01 T00891102  RH  025%=      5-min Rain = 0
KSVS 132205Z 18010G15KT 09/M10 A3035 RMK A01 T00881103  RH  025%=      5-min Rain = 0
KSVS 132210Z 20010KT 09/M10 A3036 RMK A01 T00881103  RH  025%=      5-min Rain = 0
KSVS 132215Z 19010KT 09/M11 A3035 RMK A01 T00891105  RH  025%=      5-min Rain = 0
KSVS 132220Z 20012G17KT 09/M10 A3035 RMK A01 T00881102  RH  025%=      5-min Rain = 0
KSVS 132225Z 19009G15KT 09/M10 A3035 RMK A01 T00871103  RH  025%=      5-min Rain = 0
KSVS 132230Z 19012KT 09/M10 A3035 RMK A01 T00861103  RH  025%=      5-min Rain = 0
KSVS 132235Z 19011KT 09/M10 A3035 RMK A01 T00851104  RH  025%=      5-min Rain = 0
KSVS 132240Z 18010KT 09/M11 A3035 RMK A01 T00851106  RH  025%=      5-min Rain = 0
KSVS 132245Z 19008KT 09/M11 A3034 RMK A01 T00851107  RH  025%=      5-min Rain = 0
KSVS 132250Z 19011KT 08/M11 A3034 RMK A01 T00831109  RH  025%=      5-min Rain = 0
KSVS 132255Z 19008KT 08/M11 A3034 RMK A01 T00821109  RH  025%=      5-min Rain = 0
KSVS 132300Z 18010G15KT 08/M11 A3034 RMK A01 T00811110  RH  025%=      5-min Rain = 0
KSVS 132305Z 18007G12KT 08/M11 A3034 RMK A01 T00791111  RH  025%=      5-min Rain = 0
KSVS 132310Z 18009KT 08/M11 A3034 RMK A01 T00781113  RH  025%=      5-min Rain = 0
KSVS 132315Z 18009KT 08/M12 A3034 RMK A01 T00751115  RH  025%=      5-min Rain = 0
KSVS 132320Z 17008KT 07/M12 A3034 RMK A01 T00731116  RH  025%=      5-min Rain = 0
KSVS 132325Z 17010KT 07/M12 A3034 RMK A01 T00701118  RH  025%=      5-min Rain = 0
KSVS 132330Z 18009KT 06/M12 A3034 RMK A01 T00641119  RH  026%=      5-min Rain = 0
KSVS 132335Z 18008KT 06/M12 A3034 RMK A01 T00591120  RH  027%=      5-min Rain = 0
KSVS 132340Z 18007KT 05/M12 A3034 RMK A01 T00541121  RH  027%=      5-min Rain = 0
KSVS 132345Z 18007KT 05/M12 A3034 RMK A01 T00491123  RH  028%=      5-min Rain = 0
KSVS 132350Z 18007KT 04/M13 A3034 RMK A01 T00421125  RH  029%=      5-min Rain = 0
KSVS 132355Z 17007KT 03/M13 A3034 RMK A01 T00341127  RH  030%=      5-min Rain = 0
KSVS 140000Z 17007KT 03/M13 A3034 RMK A01 T00281128  RH  031%=      5-min Rain = 0
KSVS 140005Z 17007KT 02/M13 A3034 RMK A01 T00211129  RH  033%=      5-min Rain = 0
KSVS 140010Z 17008KT 01/M13 A3034 RMK A01 T00141130  RH  034%=      5-min Rain = 0
KSVS 140015Z 16008KT 01/M13 A3034 RMK A01 T00131129  RH  034%=      5-min Rain = 0
KSVS 140020Z 16008KT 01/M13 A3034 RMK A01 T00111127  RH  035%=      5-min Rain = 0
KSVS 140025Z 16008KT 01/M13 A3034 RMK A01 T00111127  RH  036%=      5-min Rain = 0
KSVS 140030Z 15008KT 01/M13 A3034 RMK A01 T00101129  RH  035%=      5-min Rain = 0
KSVS 140035Z 15008KT 01/M13 A3034 RMK A01 T00091130  RH  035%=      5-min Rain = 0
KSVS 140040Z 15008KT 01/M13 A3034 RMK A01 T00061130  RH  036%=      5-min Rain = 0
KSVS 140045Z 15009KT 01/M13 A3034 RMK A01 T00051129  RH  036%=      5-min Rain = 0
KSVS 140050Z 15009KT 01/M13 A3034 RMK A01 T00101126  RH  036%=      5-min Rain = 0
KSVS 140055Z 16009KT 02/M12 A3033 RMK A01 T00191123  RH  034%=      5-min Rain = 0
KSVS 140100Z 16009KT 02/M12 A3033 RMK A01 T00231124  RH  033%=      5-min Rain = 0
KSVS 140105Z 16009KT 03/M12 A3034 RMK A01 T00261124  RH  033%=      5-min Rain = 0
KSVS 140110Z 16009KT 03/M13 A3033 RMK A01 T00271125  RH  032%=      5-min Rain = 0
KSVS 140115Z 16008KT 03/M13 A3034 RMK A01 T00261125  RH  032%=      5-min Rain = 0
KSVS 140120Z 15008KT 02/M13 A3033 RMK A01 T00221126  RH  033%=      5-min Rain = 0
KSVS 140125Z 15009KT 02/M13 A3033 RMK A01 T00221126  RH  033%=      5-min Rain = 0
KSVS 140130Z 15009KT 02/M13 A3033 RMK A01 T00231125  RH  033%=      5-min Rain = 0
KSVS 140135Z 16008KT 03/M13 A3034 RMK A01 T00251126  RH  032%=      5-min Rain = 0
KSVS 140140Z 15008KT 02/M13 A3034 RMK A01 T00231127  RH  032%=      5-min Rain = 0
KSVS 140145Z 15008KT 02/M13 A3034 RMK A01 T00201128  RH  033%=      5-min Rain = 0
KSVS 140150Z 15008KT 02/M13 A3034 RMK A01 T00171128  RH  033%=      5-min Rain = 0
KSVS 140155Z 16008KT 02/M13 A3034 RMK A01 T00151129  RH  034%=      5-min Rain = 0
KSVS 140200Z 16008KT 01/M13 A3033 RMK A01 T00131129  RH  034%=      5-min Rain = 0
KSVS 140205Z 16008KT 01/M13 A3033 RMK A01 T00111130  RH  035%=      5-min Rain = 0
KSVS 140210Z 16008KT 01/M13 A3033 RMK A01 T00081130  RH  035%=      5-min Rain = 0
KSVS 140215Z 16007KT 01/M13 A3034 RMK A01 T00071130  RH  035%=      5-min Rain = 0
KSVS 140220Z 16007KT 01/M13 A3034 RMK A01 T00051131  RH  036%=      5-min Rain = 0
KSVS 140225Z 16007KT 00/M13 A3034 RMK A01 T00021132  RH  036%=      5-min Rain = 0
KSVS 140230Z 17007KT M00/M13 A3034 RMK A01 T10031133  RH  037%=      5-min Rain = 0
KSVS 140235Z 17007KT M00/M13 A3034 RMK A01 T10041127  RH  040%=      5-min Rain = 0
KSVS 140240Z 17007KT M00/M13 A3034 RMK A01 T10041131  RH  038%=      5-min Rain = 0
KSVS 140245Z 17008KT M01/M13 A3034 RMK A01 T10111133  RH  039%=      5-min Rain = 0
KSVS 140250Z 17008KT M01/M13 A3034 RMK A01 T10091131  RH  040%=      5-min Rain = 0
KSVS 140255Z 17008KT M00/M13 A3034 RMK A01 T10031128  RH  039%=      5-min Rain = 0
KSVS 140300Z 17007KT 00/M13 A3034 RMK A01 T00031127  RH  038%=      5-min Rain = 0
KSVS 140305Z 16006KT 00/M13 A3034 RMK A01 T00021126  RH  038%=      5-min Rain = 0
KSVS 140310Z 15006KT 00/13 A3034 RMK A01 T00-00-129  RH  038%=      5-min Rain = 0
KSVS 140315Z 14005KT M00/M13 A3034 RMK A01 T10041131  RH  038%=      5-min Rain = 0
KSVS 140320Z 14005KT M01/M13 A3034 RMK A01 T10081131  RH  039%=      5-min Rain = 0
KSVS 140325Z 13005KT M01/M13 A3034 RMK A01 T10111131  RH  040%=      5-min Rain = 0
KSVS 140330Z 13006KT M01/M13 A3034 RMK A01 T10111132  RH  040%=      5-min Rain = 0
KSVS 140335Z 14007KT M01/M13 A3034 RMK A01 T10141132  RH  041%=      5-min Rain = 0
KSVS 140340Z 14006KT M02/M13 A3034 RMK A01 T10151131  RH  041%=      5-min Rain = 0
KSVS 140345Z 14007KT M02/M13 A3034 RMK A01 T10161131  RH  042%=      5-min Rain = 0
KSVS 140350Z 15007KT M01/M13 A3034 RMK A01 T10141130  RH  042%=      5-min Rain = 0
KSVS 140355Z 15007KT M01/M13 A3034 RMK A01 T10101128  RH  041%=      5-min Rain = 0
KSVS 140400Z 14007KT M01/M13 A3034 RMK A01 T10081128  RH  040%=      5-min Rain = 0
KSVS 140405Z 15007KT M01/M13 A3034 RMK A01 T10081129  RH  040%=      5-min Rain = 0
KSVS 140410Z 15007KT M01/M13 A3034 RMK A01 T10071130  RH  039%=      5-min Rain = 0
KSVS 140415Z 16007KT M00/M13 A3034 RMK A01 T10031130  RH  038%=      5-min Rain = 0
KSVS 140420Z 15007KT 00/13 A3034 RMK A01 T00-00-130  RH  037%=      5-min Rain = 0
KSVS 140425Z 15007KT 00/M13 A3034 RMK A01 T00011131  RH  037%=      5-min Rain = 0
KSVS 140430Z 15006KT 00/M13 A3035 RMK A01 T00021132  RH  036%=      5-min Rain = 0
KSVS 140435Z 14006KT M00/M13 A3035 RMK A01 T10011133  RH  037%=      5-min Rain = 0
KSVS 140440Z 13005KT M01/M13 A3036 RMK A01 T10061134  RH  038%=      5-min Rain = 0
KSVS 140445Z 12005KT M01/M14 A3036 RMK A01 T10131135  RH  040%=      5-min Rain = 0
KSVS 140450Z 10005KT M02/M14 A3036 RMK A01 T10191137  RH  041%=      5-min Rain = 0
KSVS 140455Z 11006KT M02/M14 A3036 RMK A01 T10211138  RH  041%=      5-min Rain = 0
KSVS 140500Z 12006KT M02/M14 A3036 RMK A01 T10211136  RH  042%=      5-min Rain = 0
KSVS 140505Z 13006KT M03/M14 A3036 RMK A01 T10251135  RH  043%=      5-min Rain = 0
KSVS 140510Z 13006KT M03/M14 A3036 RMK A01 T10281135  RH  044%=      5-min Rain = 0
KSVS 140515Z 14006KT M03/M14 A3036 RMK A01 T10301135  RH  045%=      5-min Rain = 0
KSVS 140520Z 14006KT M03/M14 A3036 RMK A01 T10311136  RH  045%=      5-min Rain = 0
KSVS 140525Z 15007KT M03/M14 A3036 RMK A01 T10341138  RH  045%=      5-min Rain = 0
KSVS 140530Z 15007KT M03/M14 A3036 RMK A01 T10331137  RH  045%=      5-min Rain = 0
KSVS 140535Z 15007KT M03/M14 A3036 RMK A01 T10311136  RH  045%=      5-min Rain = 0
KSVS 140540Z 15007KT M03/M14 A3036 RMK A01 T10291137  RH  044%=      5-min Rain = 0
KSVS 140545Z 16007KT M03/M14 A3035 RMK A01 T10291138  RH  044%=      5-min Rain = 0
KSVS 140550Z 16007KT M03/M14 A3035 RMK A01 T10291138  RH  043%=      5-min Rain = 0
KSVS 140555Z 16005KT M03/M14 A3035 RMK A01 T10311139  RH  044%=      5-min Rain = 0

Page generated in 0.0173 seconds.